createdAt,value
2023-04-24T00:00:43.288Z,40.20
2023-04-24T00:03:12.199Z,40.20
2023-04-24T00:05:42.568Z,40.30
2023-04-24T00:08:12.270Z,40.30
2023-04-24T00:10:40.806Z,40.70
2023-04-24T00:13:09.690Z,41.70
2023-04-24T00:15:38.257Z,41.60
2023-04-24T00:18:07.058Z,42.70
2023-04-24T00:20:36.529Z,42.50
2023-04-24T00:23:05.180Z,42.50
2023-04-24T00:25:34.849Z,43.10
2023-04-24T00:28:03.319Z,43.20
2023-04-24T00:30:31.810Z,43.20
2023-04-24T00:33:00.493Z,43.60
2023-04-24T00:35:28.975Z,44.60
2023-04-24T00:37:57.469Z,44.80
2023-04-24T00:40:25.826Z,45.10
2023-04-24T00:42:55.650Z,45.40
2023-04-24T00:45:24.148Z,45.00
2023-04-24T00:47:55.018Z,45.30
2023-04-24T00:50:23.631Z,46.00
2023-04-24T00:52:52.810Z,45.40
2023-04-24T00:55:21.417Z,45.60
2023-04-24T00:57:50.777Z,45.80
2023-04-24T01:00:21.228Z,46.00
2023-04-24T01:02:50.757Z,46.30
2023-04-24T01:05:20.062Z,46.50
2023-04-24T01:07:50.218Z,46.60
2023-04-24T01:10:19.265Z,46.50
2023-04-24T01:12:48.661Z,47.00
2023-04-24T01:15:17.107Z,47.00
2023-04-24T01:17:47.807Z,46.80
2023-04-24T01:20:16.807Z,46.60
2023-04-24T01:22:46.747Z,46.60
2023-04-24T01:25:15.293Z,46.50
2023-04-24T01:27:43.744Z,46.60
2023-04-24T01:30:14.611Z,46.90
2023-04-24T01:32:45.692Z,46.70
2023-04-24T01:35:14.249Z,46.90
2023-04-24T01:37:42.664Z,47.10
2023-04-24T01:40:12.926Z,47.40
2023-04-24T01:42:43.569Z,48.20
2023-04-24T01:45:14.445Z,47.50
2023-04-24T01:47:43.099Z,47.60
2023-04-24T01:50:12.504Z,47.60
2023-04-24T01:52:41.269Z,47.70
2023-04-24T01:55:13.425Z,47.90
2023-04-24T01:57:42.757Z,47.90
2023-04-24T02:00:12.365Z,47.90
2023-04-24T02:02:47.284Z,47.90
2023-04-24T02:05:16.705Z,47.90
2023-04-24T02:07:45.154Z,47.90
2023-04-24T02:10:14.810Z,48.20
2023-04-24T02:12:46.151Z,48.20
2023-04-24T02:15:14.733Z,48.00
2023-04-24T02:17:43.203Z,47.90
2023-04-24T02:20:12.044Z,48.00
2023-04-24T02:22:40.691Z,48.30
2023-04-24T02:25:09.679Z,48.50
2023-04-24T02:27:39.446Z,49.30
2023-04-24T02:30:09.237Z,49.00
2023-04-24T02:32:37.704Z,49.10
2023-04-24T02:35:07.055Z,49.40
2023-04-24T02:37:35.768Z,49.60
2023-04-24T02:40:04.947Z,49.80
2023-04-24T02:42:33.345Z,49.90
2023-04-24T02:45:03.246Z,50.20
2023-04-24T02:47:31.807Z,50.30
2023-04-24T02:50:01.736Z,50.60
2023-04-24T02:52:30.209Z,50.60
2023-04-24T02:54:58.744Z,50.80
2023-04-24T02:57:27.297Z,51.00
2023-04-24T02:59:55.719Z,51.20
2023-04-24T03:02:25.519Z,51.40
2023-04-24T03:04:54.302Z,51.60
2023-04-24T03:07:22.866Z,51.70
2023-04-24T03:09:51.343Z,51.80
2023-04-24T03:12:20.029Z,52.00
2023-04-24T03:14:48.391Z,52.00
2023-04-24T03:17:16.763Z,52.10
2023-04-24T03:19:47.065Z,52.70
2023-04-24T03:22:15.542Z,52.10
2023-04-24T03:24:44.651Z,52.20
2023-04-24T03:27:14.543Z,52.10
2023-04-24T03:29:57.056Z,52.00
2023-04-24T03:32:43.724Z,52.00
2023-04-24T03:35:16.851Z,51.90
2023-04-24T03:37:45.356Z,52.00
2023-04-24T03:40:32.034Z,52.00
2023-04-24T03:43:01.116Z,52.00
2023-04-24T03:45:29.649Z,52.00
2023-04-24T03:47:59.059Z,51.90
2023-04-24T03:50:30.209Z,52.00
2023-04-24T03:52:59.366Z,52.00
2023-04-24T03:55:41.360Z,52.10
2023-04-24T03:58:12.327Z,52.00
2023-04-24T04:00:41.423Z,52.00
2023-04-24T04:03:45.662Z,52.10
2023-04-24T04:06:20.616Z,52.20
2023-04-24T04:08:49.258Z,52.40
2023-04-24T04:11:17.689Z,52.50
2023-04-24T04:13:49.216Z,52.40
2023-04-24T04:16:20.827Z,52.50
2023-04-24T04:18:51.894Z,52.60
2023-04-24T04:21:21.872Z,52.70
2023-04-24T04:23:58.905Z,52.80
2023-04-24T04:26:36.544Z,52.80
2023-04-24T04:29:07.794Z,52.80
2023-04-24T04:31:40.411Z,52.80
2023-04-24T04:34:13.742Z,52.90
2023-04-24T04:36:45.558Z,52.90
2023-04-24T04:39:33.611Z,52.90
2023-04-24T04:42:08.771Z,52.90
2023-04-24T04:44:41.989Z,52.90
2023-04-24T04:47:14.691Z,53.00
2023-04-24T04:49:44.507Z,53.10
2023-04-24T04:52:26.275Z,53.10
2023-04-24T04:55:01.227Z,53.00
2023-04-24T04:57:49.562Z,53.10
2023-04-24T05:00:18.536Z,53.00
2023-04-24T05:02:52.868Z,53.00
2023-04-24T05:05:21.752Z,53.00
2023-04-24T05:07:52.864Z,53.00
2023-04-24T05:10:21.329Z,52.90
2023-04-24T05:12:50.783Z,52.80
2023-04-24T05:15:19.395Z,52.80
2023-04-24T05:17:47.841Z,52.80
2023-04-24T05:20:16.352Z,52.60
2023-04-24T05:22:45.138Z,52.60
2023-04-24T05:25:18.153Z,52.50
2023-04-24T05:27:54.498Z,52.60
2023-04-24T05:30:24.516Z,52.60
2023-04-24T05:32:53.433Z,52.60
2023-04-24T05:35:22.140Z,52.40
2023-04-24T05:37:50.511Z,52.30
2023-04-24T05:40:21.145Z,52.40
2023-04-24T05:42:50.509Z,52.30
2023-04-24T05:45:19.074Z,52.10
2023-04-24T05:47:47.567Z,52.20
2023-04-24T05:50:16.289Z,52.20
2023-04-24T05:52:44.823Z,52.30
2023-04-24T05:55:26.812Z,52.20
2023-04-24T05:57:56.335Z,52.20
2023-04-24T06:00:27.062Z,52.30
2023-04-24T06:03:05.104Z,52.40
2023-04-24T06:05:34.223Z,52.40
2023-04-24T06:08:04.852Z,52.10
2023-04-24T06:10:39.305Z,51.40
2023-04-24T06:13:09.679Z,50.70
2023-04-24T06:15:41.835Z,50.00
2023-04-24T06:18:14.112Z,50.00
2023-04-24T06:20:44.209Z,50.20
2023-04-24T06:23:12.661Z,50.00
2023-04-24T06:25:42.436Z,50.10
2023-04-24T06:28:14.702Z,49.90
2023-04-24T06:30:44.504Z,49.60
2023-04-24T06:35:47.734Z,47.30
2023-04-24T06:38:17.526Z,47.00
2023-04-24T06:40:47.865Z,46.90
2023-04-24T06:43:16.334Z,46.10
2023-04-24T06:45:46.359Z,45.40
2023-04-24T06:48:14.869Z,44.80
2023-04-24T06:50:43.363Z,44.40
2023-04-24T06:53:13.852Z,44.50
2023-04-24T06:55:44.305Z,44.10
2023-04-24T06:58:15.489Z,43.90
2023-04-24T07:00:43.952Z,43.70
2023-04-24T07:03:12.482Z,43.50
2023-04-24T07:05:41.141Z,43.50
2023-04-24T07:08:12.619Z,43.70
2023-04-24T07:10:41.322Z,44.00
2023-04-24T07:13:10.031Z,44.40
2023-04-24T07:15:40.983Z,44.80
2023-04-24T07:18:09.673Z,45.30
2023-04-24T07:20:38.107Z,45.80
2023-04-24T07:23:06.537Z,46.10
2023-04-24T07:25:35.214Z,46.70
2023-04-24T07:28:04.192Z,47.00
2023-04-24T07:30:33.952Z,47.30
2023-04-24T07:33:03.666Z,47.80
2023-04-24T07:35:32.154Z,48.20
2023-04-24T07:38:01.089Z,48.30
2023-04-24T07:40:29.658Z,48.50
2023-04-24T07:42:58.018Z,48.80
2023-04-24T07:45:27.273Z,48.80
2023-04-24T07:47:55.855Z,49.00
2023-04-24T07:50:25.756Z,48.90
2023-04-24T07:52:54.087Z,49.10
2023-04-24T07:55:24.774Z,49.00
2023-04-24T07:57:55.000Z,49.00
2023-04-24T08:00:23.613Z,49.10
2023-04-24T08:02:52.222Z,49.20
2023-04-24T08:05:20.818Z,49.10
2023-04-24T08:07:51.521Z,49.20
2023-04-24T08:10:19.984Z,49.30
2023-04-24T08:12:48.436Z,49.80
2023-04-24T08:15:17.149Z,49.20
2023-04-24T08:17:45.949Z,49.40
2023-04-24T08:20:15.682Z,49.40
2023-04-24T08:22:48.168Z,49.40
2023-04-24T08:25:19.201Z,49.30
2023-04-24T08:27:47.712Z,49.00
2023-04-24T08:30:16.476Z,48.70
2023-04-24T08:32:44.953Z,48.50
2023-04-24T08:35:13.677Z,48.50
2023-04-24T08:37:42.247Z,48.30
2023-04-24T08:40:16.539Z,48.40
2023-04-24T08:42:46.795Z,48.30
2023-04-24T08:45:15.634Z,48.40
2023-04-24T08:47:45.282Z,48.20
2023-04-24T08:50:14.007Z,48.00
2023-04-24T08:52:44.105Z,48.10
2023-04-24T08:55:12.615Z,48.00
2023-04-24T08:57:42.128Z,47.90
2023-04-24T09:00:12.785Z,47.30
2023-04-24T09:02:46.087Z,47.10
2023-04-24T09:05:16.110Z,46.40
2023-04-24T09:07:47.311Z,46.00
2023-04-24T09:10:16.319Z,45.20
2023-04-24T09:12:45.873Z,44.70
2023-04-24T09:15:16.407Z,44.40
2023-04-24T09:17:46.029Z,44.40
2023-04-24T09:20:15.148Z,44.30
2023-04-24T09:22:45.124Z,44.20
2023-04-24T09:25:13.873Z,44.40
2023-04-24T09:27:46.081Z,44.40
2023-04-24T09:30:23.053Z,44.20
2023-04-24T09:32:51.504Z,43.80
2023-04-24T09:35:20.026Z,43.70
2023-04-24T09:37:49.931Z,44.10
2023-04-24T09:40:19.902Z,44.10
2023-04-24T09:42:54.357Z,44.00
2023-04-24T09:45:24.423Z,43.60
2023-04-24T09:47:56.169Z,43.20
2023-04-24T09:50:24.992Z,43.30
2023-04-24T09:52:59.973Z,43.40
2023-04-24T09:55:28.780Z,43.30
2023-04-24T09:57:59.225Z,43.30
2023-04-24T10:00:32.382Z,43.60
2023-04-24T10:03:02.241Z,43.70
2023-04-24T10:05:33.570Z,43.70
2023-04-24T10:08:06.055Z,44.00
2023-04-24T10:10:36.392Z,44.00
2023-04-24T10:13:06.239Z,44.10
2023-04-24T10:15:37.027Z,44.30
2023-04-24T10:18:07.798Z,44.40
2023-04-24T10:20:40.026Z,44.50
2023-04-24T10:23:08.798Z,44.90
2023-04-24T10:25:38.847Z,45.20
2023-04-24T10:28:10.506Z,45.30
2023-04-24T10:30:44.923Z,45.60
2023-04-24T10:33:14.504Z,45.80
2023-04-24T10:35:46.589Z,46.00
2023-04-24T10:38:18.061Z,46.40
2023-04-24T10:40:46.557Z,47.20
2023-04-24T10:43:19.848Z,47.50
2023-04-24T10:48:54.185Z,47.60
2023-04-24T10:51:24.953Z,48.20
2023-04-24T10:53:53.731Z,48.30
2023-04-24T10:56:24.370Z,48.80
2023-04-24T10:58:55.423Z,49.10
2023-04-24T11:01:28.588Z,49.60
2023-04-24T11:03:59.852Z,49.40
2023-04-24T11:06:33.855Z,49.60
2023-04-24T11:09:07.170Z,49.60
2023-04-24T11:11:38.074Z,49.40
2023-04-24T11:14:08.676Z,49.50
2023-04-24T11:16:41.118Z,50.20
2023-04-24T11:19:12.373Z,50.80
2023-04-24T11:21:45.710Z,50.60
2023-04-24T11:24:32.020Z,50.80
2023-04-24T11:27:07.800Z,51.10
2023-04-24T11:29:44.872Z,51.00
2023-04-24T11:32:30.229Z,51.00
2023-04-24T11:35:01.624Z,51.20
2023-04-24T11:37:31.265Z,51.40
2023-04-24T11:40:01.494Z,51.50
2023-04-24T11:42:30.884Z,51.20
2023-04-24T11:45:01.414Z,51.20
2023-04-24T11:47:31.197Z,51.10
2023-04-24T11:50:01.895Z,51.50
2023-04-24T11:52:31.129Z,51.30
2023-04-24T11:55:00.128Z,51.20
2023-04-24T11:57:34.539Z,50.80
2023-04-24T12:00:04.594Z,50.50
2023-04-24T12:02:40.954Z,50.50
2023-04-24T12:05:13.098Z,49.90
2023-04-24T12:07:44.917Z,49.80
2023-04-24T12:10:13.367Z,49.70
2023-04-24T12:12:41.859Z,49.30
2023-04-24T12:15:13.474Z,49.30
2023-04-24T12:17:44.503Z,49.40
2023-04-24T12:20:16.361Z,49.40
2023-04-24T12:22:49.195Z,49.40
2023-04-24T12:25:19.333Z,49.50
2023-04-24T12:27:48.364Z,49.40
2023-04-24T12:30:18.949Z,49.50
2023-04-24T12:32:48.975Z,49.40
2023-04-24T12:35:24.166Z,49.50
2023-04-24T12:37:52.821Z,49.50
2023-04-24T12:40:23.382Z,49.50
2023-04-24T12:42:54.675Z,49.60
2023-04-24T12:45:26.556Z,49.70
2023-04-24T12:47:54.997Z,49.70
2023-04-24T12:50:24.826Z,49.90
2023-04-24T12:52:53.297Z,50.00
2023-04-24T12:55:21.754Z,50.20
2023-04-24T12:57:50.136Z,50.50
2023-04-24T13:00:20.270Z,50.80
2023-04-24T13:02:49.431Z,51.10
2023-04-24T13:05:18.232Z,51.30
2023-04-24T13:07:48.059Z,51.30
2023-04-24T13:10:16.469Z,51.40
2023-04-24T13:12:46.721Z,51.50
2023-04-24T13:15:15.548Z,51.40
2023-04-24T13:17:44.066Z,52.00
2023-04-24T13:20:12.734Z,51.30
2023-04-24T13:22:41.224Z,51.50
2023-04-24T13:25:11.319Z,51.60
2023-04-24T13:27:41.438Z,52.00
2023-04-24T13:30:10.799Z,51.90
2023-04-24T13:32:39.336Z,52.70
2023-04-24T13:35:08.096Z,52.30
2023-04-24T13:37:36.485Z,52.30
2023-04-24T13:40:07.137Z,52.50
2023-04-24T13:42:37.206Z,52.70
2023-04-24T13:45:21.307Z,52.70
2023-04-24T13:47:55.034Z,52.80
2023-04-24T13:50:23.980Z,53.00
2023-04-24T13:52:52.431Z,53.00
2023-04-24T13:55:21.110Z,53.10
2023-04-24T13:57:53.241Z,53.20
2023-04-24T14:00:22.173Z,53.40
2023-04-24T14:02:50.846Z,53.50
2023-04-24T14:05:19.617Z,53.60
2023-04-24T14:07:48.078Z,53.60
2023-04-24T14:10:16.617Z,53.70
2023-04-24T14:12:45.156Z,53.80
2023-04-24T14:15:15.321Z,53.80
2023-04-24T14:17:43.886Z,54.00
2023-04-24T14:20:12.973Z,54.10
2023-04-24T14:22:41.466Z,54.40
2023-04-24T14:25:10.596Z,54.60
2023-04-24T14:27:39.053Z,54.80
2023-04-24T14:30:08.640Z,54.90
2023-04-24T14:32:38.411Z,55.00
2023-04-24T14:35:07.705Z,55.30
2023-04-24T14:37:37.064Z,55.40
2023-04-24T14:42:40.185Z,55.40
2023-04-24T14:45:09.889Z,55.50
2023-04-24T14:47:40.592Z,55.60
2023-04-24T14:50:10.299Z,55.80
2023-04-24T14:52:38.815Z,56.00
2023-04-24T14:55:07.973Z,56.20
2023-04-24T14:57:37.034Z,56.30
2023-04-24T15:00:07.256Z,56.60
2023-04-24T15:02:37.966Z,56.80
2023-04-24T15:05:09.543Z,56.80
2023-04-24T15:07:38.455Z,56.90
2023-04-24T15:10:07.827Z,57.00
2023-04-24T15:12:36.406Z,57.10
2023-04-24T15:15:04.983Z,57.30
2023-04-24T15:17:33.643Z,57.30
2023-04-24T15:20:03.910Z,57.40
2023-04-24T15:22:33.731Z,57.50
2023-04-24T15:25:02.261Z,57.60
2023-04-24T15:27:42.743Z,57.80
2023-04-24T15:30:12.449Z,58.00
2023-04-24T15:32:41.639Z,58.10
2023-04-24T15:35:10.888Z,58.20
2023-04-24T15:37:40.879Z,58.50
2023-04-24T15:40:12.326Z,58.80
2023-04-24T15:42:41.090Z,59.00
2023-04-24T15:45:10.354Z,59.30
2023-04-24T15:47:38.839Z,59.50
2023-04-24T15:50:11.052Z,59.70
2023-04-24T15:52:42.536Z,59.90
2023-04-24T15:55:11.844Z,60.00
2023-04-24T15:57:40.500Z,60.10
2023-04-24T16:00:11.287Z,60.30
2023-04-24T16:02:43.011Z,60.40
2023-04-24T16:05:11.927Z,60.50
2023-04-24T16:07:42.132Z,60.70
2023-04-24T16:10:11.429Z,60.60
2023-04-24T16:12:42.914Z,60.80
2023-04-24T16:15:12.158Z,61.00
2023-04-24T16:17:40.691Z,61.20
2023-04-24T16:20:09.781Z,61.40
2023-04-24T16:22:38.186Z,61.40
2023-04-24T16:25:09.180Z,61.70
2023-04-24T16:27:38.338Z,62.10
2023-04-24T16:30:07.713Z,62.20
2023-04-24T16:32:36.326Z,62.50
2023-04-24T16:35:04.928Z,62.60
2023-04-24T16:37:33.483Z,63.00
2023-04-24T16:40:02.015Z,63.20
2023-04-24T16:42:31.853Z,63.40
2023-04-24T16:45:00.232Z,63.70
2023-04-24T16:47:28.674Z,64.00
2023-04-24T16:49:57.074Z,64.10
2023-04-24T16:52:25.620Z,64.50
2023-04-24T16:54:53.981Z,64.80
2023-04-24T16:57:22.472Z,64.90
2023-04-24T16:59:52.145Z,65.30
2023-04-24T17:02:20.627Z,65.70
2023-04-24T17:04:49.290Z,65.90
2023-04-24T17:07:17.802Z,66.10
2023-04-24T17:09:46.236Z,67.10
2023-04-24T17:12:14.572Z,66.90
2023-04-24T17:14:42.994Z,67.30
2023-04-24T17:17:12.817Z,67.80
2023-04-24T17:19:41.264Z,68.30
2023-04-24T17:22:09.696Z,68.60
2023-04-24T17:24:39.177Z,69.00
2023-04-24T17:27:14.438Z,69.40
2023-04-24T17:29:43.898Z,69.70
2023-04-24T17:32:13.609Z,70.30
2023-04-24T17:34:42.039Z,70.70
2023-04-24T17:37:10.558Z,71.10
2023-04-24T17:39:38.980Z,71.70
2023-04-24T17:42:07.731Z,72.20
2023-04-24T17:44:36.429Z,72.50
2023-04-24T17:47:05.175Z,73.10
2023-04-24T17:49:35.067Z,73.80
2023-04-24T17:52:03.452Z,74.40
2023-04-24T17:54:31.832Z,75.00
2023-04-24T17:57:00.230Z,75.80
2023-04-24T17:59:28.647Z,76.60
2023-04-24T18:01:57.874Z,77.60
2023-04-24T18:04:27.089Z,78.50
2023-04-24T18:06:56.925Z,79.40
2023-04-24T18:09:25.258Z,80.40
2023-04-24T18:11:54.044Z,81.30
2023-04-24T18:14:23.482Z,82.10
2023-04-24T18:16:51.867Z,83.00
2023-04-24T18:19:20.333Z,83.80
2023-04-24T18:21:48.813Z,84.90
2023-04-24T18:24:19.103Z,86.00
2023-04-24T18:26:47.525Z,87.00
2023-04-24T18:29:15.960Z,87.90
2023-04-24T18:31:44.592Z,88.70
2023-04-24T18:34:12.958Z,89.90
2023-04-24T18:36:41.347Z,90.40
2023-04-24T18:39:09.745Z,90.90
2023-04-24T18:41:39.493Z,91.30
2023-04-24T18:44:09.229Z,91.80
2023-04-24T18:46:41.607Z,92.20
2023-04-24T18:49:10.290Z,92.70
2023-04-24T18:51:52.626Z,93.10
2023-04-24T18:54:22.943Z,93.50
2023-04-24T18:56:52.752Z,93.90
2023-04-24T18:59:22.522Z,94.20
2023-04-24T19:01:51.107Z,94.60
2023-04-24T19:04:20.957Z,95.00
2023-04-24T19:06:49.641Z,95.40
2023-04-24T19:09:18.115Z,95.70
2023-04-24T19:11:46.808Z,96.10
2023-04-24T19:14:16.775Z,96.50
2023-04-24T19:16:45.178Z,97.10
2023-04-24T19:19:13.592Z,97.10
2023-04-24T19:21:42.097Z,97.40
2023-04-24T19:24:10.911Z,97.60
2023-04-24T19:26:39.350Z,97.90
2023-04-24T19:29:07.688Z,98.00
2023-04-24T19:31:37.353Z,98.20
2023-04-24T19:34:05.738Z,98.40
2023-04-24T19:36:34.238Z,98.60
2023-04-24T19:39:02.729Z,98.70
2023-04-24T19:41:31.305Z,98.90
2023-04-24T19:43:59.834Z,99.00
2023-04-24T19:46:28.417Z,99.10
2023-04-24T19:48:58.213Z,99.30
2023-04-24T19:51:27.689Z,99.80
2023-04-24T19:53:56.424Z,99.70
2023-04-24T19:56:24.888Z,99.80
2023-04-24T19:58:53.329Z,99.90
2023-04-24T20:01:21.860Z,99.90
2023-04-24T20:03:51.123Z,99.90
2023-04-24T20:06:21.043Z,99.90
2023-04-24T20:08:49.713Z,99.90
2023-04-24T20:11:18.583Z,99.90
2023-04-24T20:13:46.953Z,99.90
2023-04-24T20:16:15.437Z,99.90
2023-04-24T20:18:44.937Z,99.90
2023-04-24T20:21:13.300Z,99.90
2023-04-24T20:23:43.017Z,99.90
2023-04-24T20:26:11.493Z,99.90
2023-04-24T20:28:39.962Z,99.90
2023-04-24T20:31:08.412Z,99.90
2023-04-24T20:33:41.642Z,99.90
2023-04-24T20:36:10.638Z,99.90
2023-04-24T20:38:39.386Z,99.90
2023-04-24T20:41:10.426Z,99.90
2023-04-24T20:43:38.861Z,99.90
2023-04-24T20:46:07.319Z,99.90
2023-04-24T20:48:36.281Z,99.90
2023-04-24T20:51:04.912Z,99.90
2023-04-24T20:53:33.422Z,99.90
2023-04-24T20:56:02.188Z,99.90
2023-04-24T20:58:31.945Z,99.90
2023-04-24T21:01:00.566Z,99.90
2023-04-24T21:03:29.082Z,99.90
2023-04-24T21:05:57.562Z,99.90
2023-04-24T21:08:26.053Z,99.90
2023-04-24T21:10:54.378Z,99.90
2023-04-24T21:13:22.812Z,99.90
2023-04-24T21:15:52.661Z,99.90
2023-04-24T21:18:21.222Z,99.90
2023-04-24T21:20:50.006Z,99.90
2023-04-24T21:23:18.467Z,99.90
2023-04-24T21:25:47.140Z,99.90
2023-04-24T21:28:15.699Z,99.90
2023-04-24T21:30:44.145Z,99.90
2023-04-24T21:33:13.856Z,99.90
2023-04-24T21:35:42.224Z,99.90
2023-04-24T21:38:10.834Z,99.90
2023-04-24T21:40:39.286Z,99.90
2023-04-24T21:43:09.788Z,99.90
2023-04-24T21:45:38.426Z,99.90
2023-04-24T21:48:07.079Z,99.90
2023-04-24T21:50:36.673Z,99.90
2023-04-24T21:53:05.051Z,99.90
2023-04-24T21:55:33.515Z,99.90
2023-04-24T21:58:01.978Z,99.90
2023-04-24T22:00:30.493Z,99.90
2023-04-24T22:02:59.191Z,99.90
2023-04-24T22:05:27.605Z,99.90
2023-04-24T22:07:59.340Z,99.90
2023-04-24T22:10:28.509Z,99.90
2023-04-24T22:12:56.973Z,99.90
2023-04-24T22:15:25.545Z,99.90
2023-04-24T22:17:54.018Z,99.90
2023-04-24T22:20:22.807Z,99.90
2023-04-24T22:22:51.214Z,99.90
2023-04-24T22:25:21.130Z,99.90
2023-04-24T22:27:49.554Z,99.90
2023-04-24T22:30:18.282Z,99.90
2023-04-24T22:32:46.859Z,99.90
2023-04-24T22:35:15.371Z,99.90
2023-04-24T22:37:43.785Z,99.90
2023-04-24T22:40:12.625Z,99.90
2023-04-24T22:42:43.028Z,99.90
2023-04-24T22:45:13.471Z,99.90
2023-04-24T22:47:42.316Z,99.90
2023-04-24T22:50:11.747Z,99.90
2023-04-24T22:52:41.222Z,99.90
2023-04-24T22:55:10.456Z,99.90
2023-04-24T22:57:38.980Z,99.90
2023-04-24T23:00:11.476Z,99.90
2023-04-24T23:02:41.192Z,99.90
2023-04-24T23:05:10.902Z,99.90
2023-04-24T23:07:39.637Z,99.90
2023-04-24T23:10:08.983Z,99.90
2023-04-24T23:12:37.427Z,99.90
2023-04-24T23:15:06.628Z,99.90
2023-04-24T23:17:36.282Z,99.90
2023-04-24T23:20:05.633Z,99.90
2023-04-24T23:22:34.080Z,99.90
2023-04-24T23:25:02.768Z,99.90
2023-04-24T23:27:31.151Z,99.90
2023-04-24T23:29:59.502Z,99.90
2023-04-24T23:32:27.970Z,99.90
2023-04-24T23:34:57.726Z,99.90
2023-04-24T23:37:26.280Z,99.90
2023-04-24T23:39:54.844Z,99.90
2023-04-24T23:42:23.270Z,99.90
2023-04-24T23:44:51.590Z,99.90
2023-04-24T23:47:19.936Z,99.90
2023-04-24T23:49:48.293Z,99.90
2023-04-24T23:52:17.907Z,99.90
2023-04-24T23:54:46.404Z,99.90
2023-04-24T23:57:14.858Z,99.90
2023-04-24T23:59:43.251Z,99.90
